Time;durP1;ratioP1;P1;durP2;ratioP2;P2;SDS_P1;SDS_P2;PMS_P1;PMS_P2;Temp;Humidity;BMP_temperature;BMP_pressure;BME280_temperature;BME280_humidity;BME280_pressure;Samples;Min_cycle;Max_cycle;Signal;HPM_P1;HPM_P2
2023/05/27 06:06:41;;;;;;;;;54.00;37.00;22.60;54.00;;;;;;108517;1272;35093;-67
2023/05/27 06:09:08;;;;;;;;;51.00;35.67;22.70;53.50;;;;;;110038;1257;49179;-68
2023/05/27 06:11:35;;;;;;;;;47.33;34.67;23.00;53.20;;;;;;109950;1255;53855;-68
2023/05/27 06:14:02;;;;;;;;;39.25;31.75;23.20;53.10;;;;;;110059;1257;44961;-69
2023/05/27 06:16:29;;;;;;;;;42.00;32.33;23.40;53.60;;;;;;109851;1253;49450;-69
2023/05/27 06:18:56;;;;;;;;;30.00;28.67;23.70;53.30;;;;;;109969;1257;50264;-72
2023/05/27 06:21:23;;;;;;;;;39.33;30.33;23.90;53.00;;;;;;109542;1251;686759;-69
2023/05/27 06:23:50;;;;;;;;;45.25;34.50;24.00;52.50;;;;;;110085;1250;45165;-69
2023/05/27 06:26:17;;;;;;;;;46.75;34.75;24.20;52.80;;;;;;110136;1255;49899;-69
2023/05/27 06:28:44;;;;;;;;;46.75;34.50;24.30;52.70;;;;;;110051;1255;49141;-70
2023/05/27 06:31:11;;;;;;;;;66.75;46.75;24.50;52.80;;;;;;110045;1250;54092;-69
2023/05/27 06:33:38;;;;;;;;;67.25;48.50;24.60;52.60;;;;;;109973;1251;45759;-69
2023/05/27 06:36:05;;;;;;;;;67.25;44.75;24.70;52.30;;;;;;110662;1256;49184;-69
2023/05/27 06:38:32;;;;;;;;;58.00;42.00;24.80;52.20;;;;;;110083;1256;49931;-69
2023/05/27 06:40:59;;;;;;;;;50.67;35.00;24.90;52.00;;;;;;110046;1256;54952;-69
2023/05/27 06:43:26;;;;;;;;;49.33;39.33;25.00;52.00;;;;;;110125;1250;44943;-69
2023/05/27 06:45:53;;;;;;;;;52.00;36.00;25.10;52.00;;;;;;110118;1255;49756;-68
2023/05/27 06:48:20;;;;;;;;;46.50;34.25;25.10;52.20;;;;;;110024;1250;49497;-69
2023/05/27 06:50:47;;;;;;;;;42.67;34.00;25.20;51.90;;;;;;110127;1256;54038;-68
2023/05/27 06:53:14;;;;;;;;;44.25;32.75;25.20;51.90;;;;;;110037;1250;44872;-69
2023/05/27 06:55:41;;;;;;;;;43.00;32.75;25.30;51.80;;;;;;110108;1251;49791;-69
2023/05/27 06:58:08;;;;;;;;;40.67;33.67;25.30;51.80;;;;;;110181;1250;49525;-69
2023/05/27 07:00:35;;;;;;;;;47.50;34.00;25.40;51.70;;;;;;110059;1254;55722;-69
2023/05/27 07:03:03;;;;;;;;;43.75;35.00;25.40;51.70;;;;;;110094;1250;44903;-69
2023/05/27 07:05:30;;;;;;;;;37.75;31.50;25.40;51.50;;;;;;110106;1254;48682;-69
2023/05/27 07:07:57;;;;;;;;;43.50;32.00;25.50;51.80;;;;;;110169;1250;49867;-70
2023/05/27 07:10:24;;;;;;;;;40.50;32.00;25.50;51.50;;;;;;110150;1251;54924;-69
2023/05/27 07:12:51;;;;;;;;;44.00;31.33;25.50;51.40;;;;;;110048;1250;44160;-69
2023/05/27 07:15:18;;;;;;;;;45.00;34.50;25.50;51.40;;;;;;110147;1251;50585;-69
2023/05/27 07:17:45;;;;;;;;;35.33;31.00;25.60;51.40;;;;;;110005;1256;49783;-69
2023/05/27 07:20:12;;;;;;;;;43.75;32.25;25.60;51.50;;;;;;110102;1256;53913;-69
2023/05/27 07:22:39;;;;;;;;;43.25;32.00;25.70;51.20;;;;;;110108;1256;44392;-68
2023/05/27 07:25:07;;;;;;;;;38.50;30.75;25.70;51.20;;;;;;110086;1255;50426;-70
2023/05/27 07:27:34;;;;;;;;;43.00;30.50;25.70;51.20;;;;;;110161;1251;49190;-69
2023/05/27 07:30:01;;;;;;;;;44.00;30.00;25.70;51.10;;;;;;110170;1255;53516;-70
2023/05/27 07:32:28;;;;;;;;;33.25;30.25;25.80;51.30;;;;;;110257;1255;44736;-70
2023/05/27 07:34:56;;;;;;;;;39.33;32.33;25.80;51.20;;;;;;110581;1251;50149;-70
2023/05/27 07:37:23;;;;;;;;;39.33;32.67;25.80;51.10;;;;;;110228;1256;48803;-70
2023/05/27 07:39:53;;;;;;;;;39.00;32.25;25.90;51.10;;;;;;110156;1255;53612;-70
2023/05/27 07:42:20;;;;;;;;;38.50;29.50;25.90;51.10;;;;;;110164;1251;45013;-70
2023/05/27 07:44:47;;;;;;;;;36.67;32.33;25.90;51.00;;;;;;110484;1253;50587;-70
2023/05/27 07:47:13;;;;;;;;;39.75;33.50;25.90;50.90;;;;;;110043;1255;49012;-69
2023/05/27 07:49:40;;;;;;;;;41.50;31.75;26.00;50.90;;;;;;110044;1256;53748;-69
2023/05/27 07:52:07;;;;;;;;;36.00;30.50;26.00;50.70;;;;;;110194;1256;44839;-69
2023/05/27 07:54:34;;;;;;;;;37.25;30.50;26.00;50.80;;;;;;110125;1251;50403;-69
2023/05/27 07:57:04;;;;;;;;;33.75;30.00;26.00;50.80;;;;;;110053;1251;49494;-70
2023/05/27 07:59:31;;;;;;;;;39.50;31.25;26.10;50.80;;;;;;110090;1251;54071;-69
2023/05/27 08:01:57;;;;;;;;;34.25;30.00;26.10;50.80;;;;;;110157;1251;44671;-69
2023/05/27 08:04:24;;;;;;;;;37.25;31.75;26.10;50.80;;;;;;110113;1251;49373;-69
2023/05/27 08:06:51;;;;;;;;;31.33;29.00;26.10;50.70;;;;;;111228;1243;50543;-69
2023/05/27 08:09:18;;;;;;;;;34.67;30.00;26.10;50.70;;;;;;111113;1241;54468;-70
2023/05/27 08:11:45;;;;;;;;;34.50;29.75;26.10;50.60;;;;;;111227;1243;44989;-69
2023/05/27 08:14:12;;;;;;;;;37.50;33.25;26.20;50.40;;;;;;111228;1240;49314;-69
2023/05/27 08:16:40;;;;;;;;;37.75;29.75;26.20;50.60;;;;;;111248;1240;50178;-69
2023/05/27 08:19:07;;;;;;;;;33.50;26.75;26.20;50.60;;;;;;111215;1243;53475;-70
2023/05/27 08:21:33;;;;;;;;;31.00;26.00;26.20;50.60;;;;;;111308;1239;44074;-69
2023/05/27 08:24:02;;;;;;;;;30.33;29.33;26.20;50.50;;;;;;111239;1243;49875;-69
2023/05/27 08:26:29;;;;;;;;;29.75;26.00;26.30;50.50;;;;;;111228;1238;49488;-69
2023/05/27 08:28:56;;;;;;;;;37.67;30.67;26.30;50.30;;;;;;111266;1241;53707;-69
2023/05/27 08:31:23;;;;;;;;;30.00;27.50;26.30;50.20;;;;;;111241;1243;45890;-69
2023/05/27 08:33:51;;;;;;;;;33.00;30.00;26.30;50.20;;;;;;111187;1244;49063;-70
2023/05/27 08:36:19;;;;;;;;;38.00;29.25;26.30;50.20;;;;;;111628;1243;50124;-69
2023/05/27 08:38:46;;;;;;;;;31.00;29.00;26.40;50.20;;;;;;111185;1240;54193;-69
2023/05/27 08:41:13;;;;;;;;;32.67;29.67;26.40;50.30;;;;;;111370;1243;44512;-69
2023/05/27 08:43:41;;;;;;;;;28.50;27.25;26.40;50.00;;;;;;111197;1243;49726;-70
2023/05/27 08:46:09;;;;;;;;;29.50;28.50;26.50;50.10;;;;;;111256;1243;50196;-69
2023/05/27 08:48:36;;;;;;;;;29.50;26.50;26.50;50.00;;;;;;111279;1239;53869;-70
2023/05/27 08:51:05;;;;;;;;;34.75;29.00;26.50;49.80;;;;;;111512;1243;45254;-70
2023/05/27 08:53:32;;;;;;;;;32.75;29.25;26.50;49.80;;;;;;111352;1243;49496;-71
2023/05/27 08:56:01;;;;;;;;;31.00;27.00;26.50;49.80;;;;;;111517;1241;50379;-69
2023/05/27 08:58:28;;;;;;;;;30.75;27.50;26.50;49.60;;;;;;111137;1243;53581;-69
2023/05/27 09:00:56;;;;;;;;;30.33;26.33;26.60;49.60;;;;;;111190;1243;45090;-70
2023/05/27 09:03:23;;;;;;;;;31.33;26.00;26.60;49.60;;;;;;111151;1240;49634;-70
2023/05/27 09:05:50;;;;;;;;;30.00;26.00;26.60;49.70;;;;;;111441;1243;48988;-70
2023/05/27 09:08:17;;;;;;;;;29.00;26.00;26.60;50.10;;;;;;111341;1239;54524;-69
2023/05/27 09:10:44;;;;;;;;;31.00;28.25;26.70;49.60;;;;;;111230;1239;45002;-69
2023/05/27 09:13:11;;;;;;;;;29.75;27.00;26.70;49.50;;;;;;111190;1244;50332;-69
2023/05/27 09:15:40;;;;;;;;;27.75;25.25;26.70;49.40;;;;;;111332;1239;50469;-68
2023/05/27 09:18:07;;;;;;;;;33.67;29.00;26.70;49.40;;;;;;111289;1240;53695;-69
2023/05/27 09:20:35;;;;;;;;;29.25;28.00;26.80;49.40;;;;;;111190;1238;44956;-69
2023/05/27 09:23:04;;;;;;;;;25.25;24.25;26.80;49.30;;;;;;111265;1240;49068;-69
2023/05/27 09:25:31;;;;;;;;;28.00;24.00;26.80;49.40;;;;;;111288;1243;49022;-69
2023/05/27 09:27:58;;;;;;;;;26.50;23.00;26.80;49.40;;;;;;111248;1240;54024;-69
2023/05/27 09:30:26;;;;;;;;;34.75;29.50;26.80;49.50;;;;;;111124;1241;44916;-70
2023/05/27 09:33:02;;;;;;;;;28.75;26.50;26.90;49.30;;;;;;111215;1244;49434;-70
2023/05/27 09:35:29;;;;;;;;;28.67;26.33;26.90;49.30;;;;;;111172;1244;49350;-70
2023/05/27 09:38:08;;;;;;;;;25.75;24.75;26.90;49.30;;;;;;111225;1242;54171;-69
2023/05/27 09:40:37;;;;;;;;;32.50;29.00;26.90;49.20;;;;;;111275;1243;44551;-69
2023/05/27 09:43:05;;;;;;;;;29.00;25.25;27.00;49.20;;;;;;111381;1241;49324;-69
2023/05/27 09:45:33;;;;;;;;;26.75;23.25;27.00;49.20;;;;;;111232;1243;48907;-68
2023/05/27 09:48:01;;;;;;;;;23.75;22.00;27.00;49.20;;;;;;111432;1243;53736;-69
2023/05/27 09:50:30;;;;;;;;;25.75;24.75;27.00;49.70;;;;;;111075;1242;44588;-70
2023/05/27 09:52:58;;;;;;;;;27.25;26.25;27.00;49.10;;;;;;111239;1240;50362;-70
2023/05/27 09:55:25;;;;;;;;;27.00;25.00;27.00;49.20;;;;;;111306;1241;49693;-69
2023/05/27 09:57:52;;;;;;;;;27.50;26.50;27.00;49.10;;;;;;111051;1239;53690;-69
2023/05/27 10:00:20;;;;;;;;;28.75;27.75;27.10;49.30;;;;;;111193;1240;45000;-69
2023/05/27 10:02:48;;;;;;;;;31.75;27.25;27.10;49.10;;;;;;111261;1241;49772;-71
2023/05/27 10:05:16;;;;;;;;;33.75;27.75;27.10;49.20;;;;;;111161;1244;50219;-71
2023/05/27 10:07:45;;;;;;;;;36.50;31.25;27.10;49.50;;;;;;111315;1241;53679;-71
2023/05/27 10:10:16;;;;;;;;;35.25;31.50;27.10;49.70;;;;;;111334;1242;45472;-72
2023/05/27 10:12:47;;;;;;;;;32.50;28.75;27.20;49.70;;;;;;111311;1242;49788;-74
2023/05/27 10:15:45;;;;;;;;;32.75;29.00;27.20;49.60;;;;;;111317;1238;49317;-77
2023/05/27 10:18:22;;;;;;;;;32.75;27.50;27.20;49.50;;;;;;111253;1240;54238;-74
2023/05/27 10:20:50;;;;;;;;;28.67;27.33;27.30;49.70;;;;;;111309;1239;45015;-71
2023/05/27 10:23:25;;;;;;;;;26.33;24.33;27.30;49.30;;;;;;111253;1243;48868;-71
2023/05/27 10:25:55;;;;;;;;;34.00;28.67;27.30;49.20;;;;;;111285;1244;50170;-70
2023/05/27 10:28:41;;;;;;;;;32.33;25.33;27.30;49.20;;;;;;111131;1245;53559;-74
2023/05/27 10:31:16;;;;;;;;;29.25;27.75;27.40;49.30;;;;;;111328;1243;45146;-71
2023/05/27 10:33:48;;;;;;;;;29.50;25.75;27.40;49.50;;;;;;111274;1241;49476;-70
2023/05/27 10:36:22;;;;;;;;;28.75;25.25;27.50;49.30;;;;;;111367;1243;49845;-75
2023/05/27 10:39:04;;;;;;;;;24.00;22.75;27.40;49.10;;;;;;111386;1244;54264;-73
2023/05/27 10:41:48;;;;;;;;;28.33;25.00;27.40;49.20;;;;;;111328;1238;44656;-72
2023/05/27 10:44:30;;;;;;;;;26.25;24.00;27.40;49.00;;;;;;111556;1243;51051;-71
2023/05/27 10:47:04;;;;;;;;;26.67;24.00;27.40;49.00;;;;;;111210;1240;49177;-72
2023/05/27 10:49:35;;;;;;;;;27.75;25.00;27.50;49.10;;;;;;111223;1238;53754;-73
2023/05/27 10:52:13;;;;;;;;;29.33;25.00;27.50;49.30;;;;;;111253;1244;44210;-72
2023/05/27 10:54:42;;;;;;;;;28.50;26.50;27.50;49.10;;;;;;111202;1243;49201;-72
2023/05/27 10:57:10;;;;;;;;;32.25;28.00;27.40;48.60;;;;;;111220;1238;49056;-72
2023/05/27 10:59:43;;;;;;;;;33.33;29.00;27.50;49.10;;;;;;111245;1248;54352;-71
2023/05/27 11:02:11;;;;;;;;;32.25;25.25;27.50;49.10;;;;;;111247;1240;44401;-72
2023/05/27 11:04:38;;;;;;;;;31.00;25.00;27.40;49.20;;;;;;111199;1239;50415;-72
2023/05/27 11:07:05;;;;;;;;;27.25;26.00;27.50;49.20;;;;;;111197;1238;49895;-72
2023/05/27 11:09:52;;;;;;;;;27.33;24.33;27.50;49.40;;;;;;111204;1238;54317;-72
2023/05/27 11:12:20;;;;;;;;;25.50;24.50;27.50;49.20;;;;;;111185;1240;44613;-71
2023/05/27 11:14:47;;;;;;;;;26.75;24.25;27.50;49.20;;;;;;111254;1240;49202;-70
2023/05/27 11:17:14;;;;;;;;;29.00;24.00;27.50;49.20;;;;;;111182;1240;48927;-71
2023/05/27 11:19:44;;;;;;;;;29.25;25.00;27.40;49.10;;;;;;111199;1243;53884;-71
2023/05/27 11:22:12;;;;;;;;;25.25;24.25;27.50;49.10;;;;;;111235;1243;44332;-71
2023/05/27 11:24:40;;;;;;;;;26.00;23.50;27.50;49.10;;;;;;111197;1243;49286;-72
2023/05/27 11:27:11;;;;;;;;;23.75;22.75;27.50;49.10;;;;;;111124;1246;49534;-71
2023/05/27 11:29:38;;;;;;;;;29.00;25.50;27.50;49.10;;;;;;111243;1243;53178;-72
2023/05/27 11:32:06;;;;;;;;;29.75;25.00;27.50;49.00;;;;;;111163;1238;44962;-71
2023/05/27 11:34:34;;;;;;;;;25.00;24.00;27.50;49.20;;;;;;111208;1243;49011;-71
2023/05/27 11:37:06;;;;;;;;;29.33;26.33;27.50;49.20;;;;;;111289;1238;50214;-72
2023/05/27 11:39:33;;;;;;;;;25.25;24.25;27.50;49.10;;;;;;111253;1241;53324;-71
2023/05/27 11:42:05;;;;;;;;;26.50;24.75;27.50;48.70;;;;;;111411;1239;45541;-71
2023/05/27 11:44:32;;;;;;;;;31.00;27.00;27.50;49.10;;;;;;111372;1239;49225;-71
2023/05/27 11:47:00;;;;;;;;;23.33;22.67;27.50;49.10;;;;;;111330;1238;50901;-71
2023/05/27 11:49:28;;;;;;;;;25.50;23.75;27.50;49.10;;;;;;111194;1241;54695;-72
2023/05/27 11:51:56;;;;;;;;;27.33;24.00;27.50;49.00;;;;;;111212;1238;44461;-71
2023/05/27 11:54:28;;;;;;;;;27.25;25.75;27.50;48.80;;;;;;111234;1239;49845;-72
2023/05/27 11:56:57;;;;;;;;;26.50;24.50;27.50;48.90;;;;;;111220;1238;49840;-71
2023/05/27 11:59:24;;;;;;;;;28.00;25.67;27.50;49.30;;;;;;111278;1238;54126;-71
2023/05/27 12:01:55;;;;;;;;;29.67;28.67;27.50;49.00;;;;;;111129;1241;45021;-71
2023/05/27 12:04:22;;;;;;;;;24.67;23.00;27.50;48.80;;;;;;111372;1243;49777;-71
2023/05/27 12:06:48;;;;;;;;;26.67;25.67;27.50;48.90;;;;;;111346;1238;49420;-71
2023/05/27 12:09:16;;;;;;;;;25.75;23.25;27.50;48.90;;;;;;111164;1243;53785;-71
2023/05/27 12:11:43;;;;;;;;;25.25;23.50;27.50;48.90;;;;;;111188;1243;44622;-74
2023/05/27 12:14:10;;;;;;;;;25.25;23.25;27.50;49.10;;;;;;111211;1240;50537;-70
2023/05/27 12:16:37;;;;;;;;;22.67;21.67;27.50;48.90;;;;;;111227;1240;50219;-71
2023/05/27 12:19:04;;;;;;;;;28.00;23.00;27.50;48.90;;;;;;111254;1239;53959;-70
2023/05/27 12:21:32;;;;;;;;;23.00;22.50;27.50;49.00;;;;;;111326;1241;45706;-71
2023/05/27 12:23:59;;;;;;;;;24.00;21.67;27.50;49.00;;;;;;111299;1243;49762;-71
2023/05/27 12:26:26;;;;;;;;;26.50;25.50;27.50;49.30;;;;;;111569;1240;48902;-71
2023/05/27 12:28:53;;;;;;;;;28.33;25.00;27.50;49.10;;;;;;111175;1243;53342;-70
2023/05/27 12:31:20;;;;;;;;;24.50;23.50;27.50;49.20;;;;;;111186;1243;44805;-71
2023/05/27 12:33:47;;;;;;;;;28.25;27.00;27.50;49.00;;;;;;111229;1239;49132;-72
2023/05/27 12:36:14;;;;;;;;;24.00;21.75;27.50;49.10;;;;;;111444;1243;49027;-71
2023/05/27 12:38:41;;;;;;;;;32.67;25.00;27.50;49.60;;;;;;111396;1244;55159;-74
2023/05/27 12:41:08;;;;;;;;;23.50;22.25;27.50;49.10;;;;;;111326;1243;45974;-71
2023/05/27 12:43:35;;;;;;;;;24.50;23.00;27.50;49.20;;;;;;111191;1243;50296;-72
2023/05/27 12:46:03;;;;;;;;;27.00;25.00;27.50;49.20;;;;;;111235;1238;49713;-72
2023/05/27 12:48:30;;;;;;;;;24.25;23.25;27.50;49.50;;;;;;111191;1243;54331;-71
2023/05/27 12:50:57;;;;;;;;;28.50;27.00;27.50;49.20;;;;;;111222;1238;44599;-72
2023/05/27 12:53:24;;;;;;;;;24.00;23.00;27.50;49.20;;;;;;111178;1244;49088;-71
2023/05/27 12:55:51;;;;;;;;;24.50;23.50;27.50;49.20;;;;;;111287;1243;49389;-71
2023/05/27 12:58:17;;;;;;;;;27.50;26.00;27.40;49.00;;;;;;111367;1240;53707;-73
2023/05/27 13:00:45;;;;;;;;;28.00;24.50;27.50;49.10;;;;;;111276;1240;44705;-72
2023/05/27 13:03:11;;;;;;;;;30.00;28.75;27.50;49.10;;;;;;111192;1239;49217;-64
2023/05/27 13:05:38;;;;;;;;;29.75;25.75;27.40;49.10;;;;;;111433;1238;49649;-68
2023/05/27 13:08:06;;;;;;;;;23.75;22.75;27.40;49.30;;;;;;111218;1242;53250;-69
2023/05/27 13:10:33;;;;;;;;;24.00;21.50;27.50;49.20;;;;;;111211;1244;45055;-71
2023/05/27 13:13:01;;;;;;;;;24.00;23.00;27.50;49.20;;;;;;111181;1243;50273;-67
2023/05/27 13:15:28;;;;;;;;;23.00;20.50;27.40;49.10;;;;;;111233;1243;49744;-68
2023/05/27 13:17:56;;;;;;;;;24.00;22.25;27.40;49.20;;;;;;111311;1240;54111;-69
2023/05/27 13:20:24;;;;;;;;;25.00;23.67;27.40;49.40;;;;;;111226;1242;46264;-70
2023/05/27 13:22:52;;;;;;;;;25.50;23.00;27.50;49.20;;;;;;111211;1243;50174;-70
2023/05/27 13:25:20;;;;;;;;;26.33;21.67;27.50;49.20;;;;;;111280;1240;49809;-67
2023/05/27 13:27:47;;;;;;;;;25.50;23.25;27.50;48.10;;;;;;111245;1243;53867;-67
2023/05/27 13:30:15;;;;;;;;;26.00;23.00;27.50;47.90;;;;;;111398;1239;45735;-67
2023/05/27 13:32:43;;;;;;;;;28.25;25.75;27.40;48.20;;;;;;111204;1243;49714;-68
2023/05/27 13:35:11;;;;;;;;;26.25;24.00;27.40;48.40;;;;;;111237;1243;49237;-68
2023/05/27 13:37:39;;;;;;;;;30.00;27.00;27.40;48.30;;;;;;111228;1243;54047;-68
2023/05/27 13:40:07;;;;;;;;;26.00;25.00;27.50;48.20;;;;;;111264;1243;44716;-68
2023/05/27 13:42:35;;;;;;;;;25.50;23.00;27.50;48.10;;;;;;111329;1243;50650;-68
2023/05/27 13:45:02;;;;;;;;;31.00;25.67;27.40;48.10;;;;;;111072;1244;49466;-70
2023/05/27 13:47:29;;;;;;;;;28.00;24.33;27.40;48.10;;;;;;111319;1242;53608;-71
2023/05/27 13:49:56;;;;;;;;;30.50;24.50;27.40;47.90;;;;;;111199;1243;44289;-69
2023/05/27 13:52:23;;;;;;;;;28.75;27.75;27.40;47.50;;;;;;111183;1243;49313;-68
2023/05/27 13:54:50;;;;;;;;;31.25;28.50;27.40;47.80;;;;;;111302;1238;50074;-69
2023/05/27 13:57:17;;;;;;;;;25.00;23.00;27.40;48.20;;;;;;111266;1238;54368;-71
2023/05/27 13:59:44;;;;;;;;;25.25;23.50;27.40;48.50;;;;;;111443;1241;44901;-74
2023/05/27 14:02:11;;;;;;;;;29.33;28.33;27.40;48.40;;;;;;111403;1243;49481;-72
2023/05/27 14:04:38;;;;;;;;;24.00;22.67;27.40;48.30;;;;;;111651;1241;49117;-72
2023/05/27 14:07:05;;;;;;;;;32.25;29.00;27.30;48.20;;;;;;111416;1243;53494;-70
2023/05/27 14:09:32;;;;;;;;;29.25;27.00;27.40;48.10;;;;;;111658;1238;44305;-73
2023/05/27 14:11:59;;;;;;;;;27.75;26.50;27.30;48.00;;;;;;111506;1239;50007;-72
2023/05/27 14:14:26;;;;;;;;;29.50;28.50;27.30;47.90;;;;;;111665;1238;49416;-71
2023/05/27 14:16:53;;;;;;;;;25.33;24.67;27.30;47.90;;;;;;111527;1238;54797;-73
2023/05/27 14:19:21;;;;;;;;;24.25;23.00;27.30;47.80;;;;;;111327;1244;44260;-71
2023/05/27 14:21:48;;;;;;;;;28.50;25.50;27.30;47.90;;;;;;111321;1240;49330;-69
2023/05/27 14:24:15;;;;;;;;;36.25;30.50;27.30;48.00;;;;;;111585;1241;49647;-76
2023/05/27 14:26:43;;;;;;;;;30.33;28.33;27.30;48.10;;;;;;111642;1238;53929;-70
2023/05/27 14:29:11;;;;;;;;;28.50;26.50;27.20;48.00;;;;;;111375;1243;45138;-68
2023/05/27 14:31:38;;;;;;;;;30.25;27.50;27.20;47.90;;;;;;111320;1239;49344;-68
2023/05/27 14:34:05;;;;;;;;;32.50;29.00;27.30;48.00;;;;;;111527;1243;48863;-69
2023/05/27 14:36:32;;;;;;;;;29.00;27.50;27.20;48.00;;;;;;111764;1239;54079;-71
2023/05/27 14:39:03;;;;;;;;;26.00;25.00;27.20;48.00;;;;;;111445;1243;44895;-70
2023/05/27 14:41:29;;;;;;;;;27.50;26.50;27.20;48.10;;;;;;111461;1243;49706;-71
2023/05/27 14:43:57;;;;;;;;;25.00;24.00;27.20;47.90;;;;;;111530;1238;50690;-71
2023/05/27 14:46:24;;;;;;;;;26.50;24.50;27.20;47.80;;;;;;111666;1243;54086;-71
2023/05/27 14:48:51;;;;;;;;;27.25;26.25;27.20;47.80;;;;;;111430;1238;45732;-70
2023/05/27 14:51:18;;;;;;;;;27.50;26.50;27.20;47.80;;;;;;111440;1243;50001;-69
2023/05/27 14:53:45;;;;;;;;;22.75;21.50;27.20;47.80;;;;;;111357;1238;49730;-65
2023/05/27 14:56:12;;;;;;;;;26.25;23.00;27.20;48.70;;;;;;111235;1240;54066;-63
2023/05/27 14:58:42;;;;;;;;;23.00;20.00;27.20;48.60;;;;;;111197;1240;44805;-64
2023/05/27 15:01:10;;;;;;;;;31.00;28.25;27.10;48.70;;;;;;111402;1243;50024;-65
2023/05/27 15:03:38;;;;;;;;;32.33;29.00;27.10;48.90;;;;;;111410;1243;49016;-65
2023/05/27 15:06:05;;;;;;;;;26.75;25.50;27.00;49.00;;;;;;111612;1243;53991;-66
2023/05/27 15:08:32;;;;;;;;;41.25;31.50;27.00;49.00;;;;;;111149;1243;45637;-66
2023/05/27 15:10:59;;;;;;;;;37.50;30.00;27.00;48.90;;;;;;111111;1241;50238;-66
2023/05/27 15:13:26;;;;;;;;;40.00;33.00;27.00;49.00;;;;;;111052;1243;50744;-65
2023/05/27 15:15:53;;;;;;;;;34.75;29.50;27.00;48.90;;;;;;110920;1240;54810;-65
2023/05/27 15:18:20;;;;;;;;;29.00;26.25;27.00;48.90;;;;;;111115;1240;44665;-66
2023/05/27 15:20:47;;;;;;;;;27.00;26.00;27.00;48.70;;;;;;111127;1241;49958;-66
2023/05/27 15:23:14;;;;;;;;;31.75;29.25;27.00;48.60;;;;;;111100;1243;48949;-65
2023/05/27 15:25:41;;;;;;;;;35.25;28.25;27.00;48.60;;;;;;113145;1243;55058;-66
2023/05/27 15:28:11;;;;;;;;;31.25;26.75;27.00;48.60;;;;;;111176;1238;44367;-66
2023/05/27 15:30:38;;;;;;;;;33.00;28.75;27.10;48.50;;;;;;111164;1243;49035;-65
2023/05/27 15:33:05;;;;;;;;;33.00;29.00;27.10;48.10;;;;;;111311;1244;49759;-64
2023/05/27 15:35:32;;;;;;;;;29.75;25.75;27.10;48.20;;;;;;111233;1240;54756;-65
2023/05/27 15:38:00;;;;;;;;;31.50;26.50;27.00;48.20;;;;;;111197;1243;44953;-66
2023/05/27 15:40:27;;;;;;;;;26.50;24.25;27.00;48.30;;;;;;111218;1242;49376;-66
2023/05/27 15:42:54;;;;;;;;;26.33;25.33;26.90;47.80;;;;;;111161;1240;49900;-64
2023/05/27 15:45:21;;;;;;;;;29.00;27.00;26.90;48.20;;;;;;111289;1238;53461;-66
2023/05/27 15:47:49;;;;;;;;;26.00;25.00;26.90;48.40;;;;;;111303;1239;44885;-66
2023/05/27 15:50:16;;;;;;;;;26.75;23.75;26.90;48.40;;;;;;111198;1241;49493;-66
2023/05/27 15:52:43;;;;;;;;;26.00;25.00;26.80;48.40;;;;;;111188;1240;49790;-66
2023/05/27 15:55:10;;;;;;;;;24.00;22.75;26.80;48.50;;;;;;111245;1238;54126;-66
2023/05/27 15:57:37;;;;;;;;;24.75;23.25;26.80;48.60;;;;;;111195;1240;44269;-66
2023/05/27 16:00:05;;;;;;;;;30.00;24.75;26.70;48.50;;;;;;111367;1238;49673;-66
2023/05/27 16:02:32;;;;;;;;;27.50;24.25;26.70;48.60;;;;;;111176;1244;49983;-65
2023/05/27 16:04:59;;;;;;;;;23.75;22.75;26.70;48.80;;;;;;111323;1244;54135;-66
2023/05/27 16:07:26;;;;;;;;;25.75;23.50;26.70;48.80;;;;;;111319;1240;44454;-65
2023/05/27 16:09:53;;;;;;;;;25.50;24.25;26.70;48.80;;;;;;111236;1240;49197;-66
2023/05/27 16:12:20;;;;;;;;;26.00;23.00;26.70;49.40;;;;;;111250;1244;48804;-65
2023/05/27 16:14:46;;;;;;;;;21.25;20.25;26.70;48.40;;;;;;111240;1241;53418;-65
2023/05/27 16:17:13;;;;;;;;;28.33;23.33;26.60;48.90;;;;;;111180;1243;44276;-65
2023/05/27 16:19:40;;;;;;;;;26.50;23.75;26.60;48.80;;;;;;111254;1239;49406;-65
2023/05/27 16:22:08;;;;;;;;;21.67;20.00;26.60;48.70;;;;;;111299;1238;49504;-65
2023/05/27 16:24:35;;;;;;;;;24.25;22.50;26.60;48.70;;;;;;111181;1238;54184;-65
2023/05/27 16:27:02;;;;;;;;;23.00;22.00;26.50;48.90;;;;;;111290;1243;45138;-66
2023/05/27 16:29:29;;;;;;;;;26.25;23.00;26.50;48.70;;;;;;111422;1241;49925;-65
2023/05/27 16:31:57;;;;;;;;;23.00;22.00;26.50;48.90;;;;;;111266;1240;49766;-66
2023/05/27 16:34:24;;;;;;;;;22.00;21.00;26.50;48.90;;;;;;111192;1238;54087;-67
2023/05/27 16:36:51;;;;;;;;;24.00;19.00;26.50;48.70;;;;;;111274;1245;45147;-66
2023/05/27 16:39:18;;;;;;;;;24.25;22.00;26.50;48.70;;;;;;111234;1244;49112;-65
2023/05/27 16:41:45;;;;;;;;;25.50;23.00;26.50;48.70;;;;;;111330;1243;49067;-66
2023/05/27 16:44:13;;;;;;;;;24.75;23.50;26.50;48.70;;;;;;111189;1238;53719;-66
2023/05/27 16:46:40;;;;;;;;;24.75;23.75;26.40;48.70;;;;;;111217;1244;45290;-65
2023/05/27 16:49:06;;;;;;;;;24.00;23.00;26.40;48.70;;;;;;111221;1243;50080;-66
2023/05/27 16:51:33;;;;;;;;;22.75;21.75;26.40;48.70;;;;;;111171;1239;49850;-65
2023/05/27 16:54:00;;;;;;;;;22.00;20.75;26.40;48.90;;;;;;111209;1240;54897;-67
2023/05/27 16:56:27;;;;;;;;;20.75;19.00;26.40;48.80;;;;;;111262;1239;45462;-66
2023/05/27 16:58:55;;;;;;;;;22.75;20.50;26.40;48.80;;;;;;111408;1241;50472;-65
2023/05/27 17:01:22;;;;;;;;;22.00;21.00;26.40;48.80;;;;;;111298;1241;49121;-66
2023/05/27 17:03:49;;;;;;;;;28.75;26.00;26.40;48.80;;;;;;111201;1244;53272;-66
2023/05/27 17:06:16;;;;;;;;;23.25;19.25;26.30;48.70;;;;;;111265;1241;44492;-65
2023/05/27 17:08:44;;;;;;;;;24.75;21.75;26.30;48.80;;;;;;111188;1238;50446;-65
2023/05/27 17:11:11;;;;;;;;;22.75;21.75;26.30;48.80;;;;;;111164;1243;49709;-66
2023/05/27 17:13:40;;;;;;;;;21.00;19.50;26.40;48.80;;;;;;111259;1243;54028;-66
2023/05/27 17:16:07;;;;;;;;;24.33;23.33;26.30;48.70;;;;;;111263;1243;44348;-66
2023/05/27 17:18:35;;;;;;;;;23.00;21.75;26.30;48.90;;;;;;111355;1240;49299;-66
2023/05/27 17:21:02;;;;;;;;;23.67;22.67;26.30;48.80;;;;;;111244;1244;49201;-66
2023/05/27 17:23:29;;;;;;;;;22.25;21.25;26.30;49.00;;;;;;111270;1238;53604;-64
2023/05/27 17:25:56;;;;;;;;;26.25;23.50;26.30;49.00;;;;;;111238;1239;44604;-65
2023/05/27 17:28:23;;;;;;;;;21.67;19.67;26.30;49.30;;;;;;111176;1243;48882;-65
2023/05/27 17:30:50;;;;;;;;;23.33;22.00;26.30;49.10;;;;;;111212;1243;50558;-64
2023/05/27 17:33:17;;;;;;;;;23.75;23.00;26.20;49.00;;;;;;111248;1238;53779;-65
2023/05/27 17:35:43;;;;;;;;;27.25;25.00;26.20;49.20;;;;;;111233;1243;44315;-65
2023/05/27 17:38:11;;;;;;;;;25.00;22.50;26.20;49.20;;;;;;111184;1243;50432;-66
2023/05/27 17:40:38;;;;;;;;;23.00;22.00;26.20;49.00;;;;;;111363;1240;49591;-66
2023/05/27 17:43:05;;;;;;;;;24.00;23.00;26.20;49.20;;;;;;111212;1238;54923;-66
2023/05/27 17:45:32;;;;;;;;;25.75;23.50;26.20;49.10;;;;;;111203;1238;44819;-65
2023/05/27 17:47:59;;;;;;;;;27.00;23.00;26.20;49.30;;;;;;111172;1244;49266;-65
2023/05/27 17:50:26;;;;;;;;;23.25;22.00;26.20;49.10;;;;;;111162;1240;49827;-66
2023/05/27 17:52:52;;;;;;;;;23.25;20.25;26.10;49.00;;;;;;111240;1243;54704;-66
2023/05/27 17:55:19;;;;;;;;;27.25;25.75;26.20;49.00;;;;;;111193;1239;44538;-65
2023/05/27 17:57:48;;;;;;;;;26.67;22.67;26.10;49.00;;;;;;111191;1244;49657;-66
2023/05/27 18:00:15;;;;;;;;;27.50;23.50;26.10;48.90;;;;;;111265;1243;51019;-65
2023/05/27 18:02:42;;;;;;;;;24.00;21.00;26.10;48.90;;;;;;111201;1239;54479;-64
2023/05/27 18:05:09;;;;;;;;;21.00;20.00;26.10;48.90;;;;;;111260;1243;44348;-65
2023/05/27 18:07:36;;;;;;;;;23.50;22.00;26.10;48.90;;;;;;111185;1240;50033;-64
2023/05/27 18:10:04;;;;;;;;;23.00;22.25;26.10;48.90;;;;;;111178;1239;49982;-65
2023/05/27 18:12:30;;;;;;;;;21.50;20.50;26.10;48.90;;;;;;111208;1243;54466;-64
2023/05/27 18:14:58;;;;;;;;;22.75;21.00;26.00;48.80;;;;;;111181;1244;44756;-65
2023/05/27 18:17:25;;;;;;;;;24.00;23.00;26.00;49.00;;;;;;111171;1238;49844;-65
2023/05/27 18:19:51;;;;;;;;;20.00;19.00;26.00;48.80;;;;;;110680;1238;679918;-64
2023/05/27 18:22:18;;;;;;;;;24.75;22.25;26.00;48.80;;;;;;111165;1240;54220;-65
2023/05/27 18:24:45;;;;;;;;;24.25;20.00;26.00;48.80;;;;;;111186;1238;44868;-65
2023/05/27 18:27:13;;;;;;;;;21.50;20.00;26.00;48.80;;;;;;111185;1244;49486;-66